Details From MUHA - Havana Jose Marti Intl
To KEYW - Key West Intl
Flight Number -
Tags decoded
Created
Modified
Stats Distance 244 nm / 451 km
Max Altitude 0 ft / 0 m
Waypoints 9
Social Downloads 2
Likes 0
Share VATSIM

Download

Looking for another format? Having issues loading an existing format? Contact us
Advertisement - Login to hide

Notes

Requested: MUHA UVA TADPO VRGAS MTH EYW STING STRAP KEYW

Route

MUHA UVA TADPO VRGAS MTH EYW STING STRAP KEYW

ID Type Via Altitude Latitude Longitude Leg Dist Tot Dist Heading (true) Name
O MUHA APT - 0 ft / 0 m 22.98915˚ -82.40909˚ - 0 nm - Havana Jose Marti Intl
UVA VOR - 0 ft / 0 m 23.02469˚ -81.45358˚ 52 nm 52 nm 87° / 88° VARDER VOR-DME
TADPO FIX - 0 ft / 0 m 24.00044˚ -81.21700˚ 60 nm 112 nm 12° / 13° -
VRGAS FIX - 0 ft / 0 m 24.46417˚ -81.13222˚ 28 nm 141 nm 9° / 9° -
MTH NDB - 0 ft / 0 m 24.71189˚ -81.09531˚ 15 nm 156 nm 8° / 8° MARATHON NDB
EYW VOR - 0 ft / 0 m 24.58589˚ -81.80047˚ 39 nm 195 nm 259° / 259° KEY WEST VORTAC
STING FIX - 0 ft / 0 m 24.88158˚ -81.79631˚ 17 nm 213 nm 1° / 1° -
STRAP FIX - 0 ft / 0 m 24.83194˚ -81.58969˚ 11 nm 224 nm 105° / 105° -
O KEYW APT - 0 ft / 0 m 24.55612˚ -81.75955˚ 18 nm 243 nm 209° / 209° Key West Intl

Altitude Profile

Advertisement - Login to hide

Weather


0- 5 10 15 20 25 30 35+ Temperature / ° C

Clouds and Precipitation
Forecast for 2017-12-16 18:00 UTC. Updated 17 minutes ago

Ground ~20,000 ft ~40,000 ft Winds

MUHA

Details ICAO MUHA (HAV)
Name Havana Jose Marti Intl
Region Cuba
Timezone America/Havana (UTC-5.0)
Stats Elevation 209 ft / 64 m (AMSL)
Location 22.989154° -82.409086°
Runways 1
Magnetic Variation 4.909° W

METAR

MUHA 161655Z 09007KT 9000 FEW030 28/21 Q1021

Decode

TAF

Not found

Departure Runways

ID Width Length Bearing (true) Bearing (mag) Surface Threshold Offset Overrun Length
06 148 ft / 45 m 13,133 ft / 4,003 m 54.21° 59.12° Asphalt 0 ft / 0 m 476 ft / 145 m
24 148 ft / 45 m 13,133 ft / 4,003 m 234.23° 239.14° Asphalt 0 ft / 0 m 197 ft / 60 m

KEYW

Details ICAO KEYW (EYW)
Name Key West Intl
Region United States
Timezone America/New_York (UTC-5.0)
Stats Elevation 2 ft / 1 m (AMSL)
Location 24.556124° -81.759546°
Runways 1
Magnetic Variation 5.546° W

METAR

KEYW 161653Z 03010KT 10SM CLR 24/17 A3018 RMK AO2 SLP219 T02440167

Decode

TAF

TAF KEYW 161120Z 1612/1712 07006KT P6SM FEW250 FM162100 08010KT P6SM FEW028 SCT250 FM170000 08011KT P6SM SCT028 SCT060 BKN250 FM170900 09011KT P6SM SCT028 BKN060 OVC250

Decode

Destination Runways

ID Width Length Bearing (true) Bearing (mag) Surface Threshold Offset Overrun Length
09 100 ft / 30 m 4,794 ft / 1,461 m 89.38° 94.93° Asphalt 151 ft / 46 m 0 ft / 0 m
27 100 ft / 30 m 4,794 ft / 1,461 m 269.39° 274.94° Asphalt 151 ft / 46 m 0 ft / 0 m

Popular Alternatives